Time;durP1;ratioP1;P1;durP2;ratioP2;P2;SDS_P1;SDS_P2;PMS_P1;PMS_P2;Temp;Humidity;BMP_temperature;BMP_pressure;BME280_temperature;BME280_humidity;BME280_pressure;Samples;Min_cycle;Max_cycle;Signal;HPM_P1;HPM_P2
2021/03/29 00:00:58;;;;;;;15.57;4.90;;;;;;;9.86;82.61;102563.00;10524363;28;20526;-86
2021/03/29 00:05:59;;;;;;;17.27;4.28;;;;;;;9.83;83.14;102574.41;10509662;28;20031;-87
2021/03/29 00:11:00;;;;;;;14.13;4.47;;;;;;;9.88;82.98;102571.59;10552439;28;20085;-87
2021/03/29 00:16:01;;;;;;;13.65;4.10;;;;;;;9.86;82.52;102563.00;10549161;28;20044;-87
2021/03/29 00:21:07;;;;;;;12.65;4.78;;;;;;;9.80;82.97;102559.63;10504503;28;20040;-87
2021/03/29 00:26:11;;;;;;;14.73;4.80;;;;;;;9.84;82.42;102560.63;10523007;28;20029;-84
2021/03/29 00:31:11;;;;;;;16.30;5.60;;;;;;;9.88;82.44;102577.00;10535136;28;20139;-85
2021/03/29 00:36:12;;;;;;;12.20;4.85;;;;;;;9.60;81.85;102511.59;10512533;28;20038;-85
2021/03/29 00:41:13;;;;;;;19.00;4.45;;;;;;;10.01;80.83;102576.09;10520295;28;20503;-86
2021/03/29 00:46:18;;;;;;;13.10;4.50;;;;;;;10.02;79.80;102544.47;10499217;28;20471;-84
2021/03/29 00:51:28;;;;;;;11.85;4.20;;;;;;;9.91;79.17;102506.16;10513443;28;20465;-83
2021/03/29 00:56:30;;;;;;;9.52;4.53;;;;;;;9.86;79.88;102509.78;10505375;28;20053;-86
2021/03/29 01:01:36;;;;;;;16.33;4.30;;;;;;;9.94;80.24;102548.72;10506794;28;20055;-85
2021/03/29 01:06:39;;;;;;;11.43;4.35;;;;;;;9.71;80.18;102529.09;10553792;28;20358;-86
2021/03/29 01:11:44;;;;;;;11.98;4.30;;;;;;;9.88;79.39;102550.00;10514367;28;20101;-87
2021/03/29 01:16:49;;;;;;;12.93;4.22;;;;;;;9.92;79.09;102556.34;10506825;28;20045;-86
2021/03/29 01:22:03;;;;;;;17.13;5.53;;;;;;;9.73;78.94;102526.88;10518662;28;20052;-85
2021/03/29 01:27:04;;;;;;;9.93;3.60;;;;;;;9.59;78.86;102499.19;10515248;28;20036;-86
2021/03/29 01:32:06;;;;;;;13.68;4.30;;;;;;;9.80;79.42;102550.75;10517912;28;20040;-87
2021/03/29 01:37:07;;;;;;;13.35;3.80;;;;;;;9.67;79.36;102533.53;10496356;28;20437;-86
2021/03/29 01:42:08;;;;;;;13.45;4.45;;;;;;;9.28;79.60;102484.59;10502841;28;20067;-86
2021/03/29 01:47:09;;;;;;;9.23;3.35;;;;;;;9.71;79.31;102556.91;10480061;28;20139;-85
2021/03/29 01:52:10;;;;;;;21.23;4.78;;;;;;;9.31;79.66;102508.28;10492329;28;20040;-85
2021/03/29 01:57:11;;;;;;;10.60;4.43;;;;;;;9.69;79.01;102559.13;10522428;28;20131;-85
2021/03/29 02:02:12;;;;;;;9.65;3.60;;;;;;;9.70;79.36;102566.09;10513247;28;20058;-86
2021/03/29 02:07:13;;;;;;;12.15;3.58;;;;;;;9.53;78.90;102539.03;10538565;28;20093;-85
2021/03/29 02:12:14;;;;;;;10.13;3.40;;;;;;;9.57;78.95;102529.22;10498072;28;20032;-86
2021/03/29 02:17:15;;;;;;;11.95;3.90;;;;;;;9.79;78.90;102557.28;10490361;28;20031;-86
2021/03/29 02:22:16;;;;;;;13.18;4.03;;;;;;;9.91;78.29;102565.56;10530040;28;20089;-85
2021/03/29 02:27:17;;;;;;;11.93;3.63;;;;;;;9.82;78.00;102545.84;10532018;28;20089;-86
2021/03/29 02:32:22;;;;;;;13.85;3.90;;;;;;;10.04;78.02;102566.56;10513404;28;20123;-87
2021/03/29 02:37:22;;;;;;;13.13;4.30;;;;;;;9.92;77.86;102540.13;10530652;28;20131;-86
2021/03/29 02:42:23;;;;;;;10.07;2.97;;;;;;;10.07;77.89;102564.03;10528536;28;20118;-83
2021/03/29 02:47:26;;;;;;;9.70;3.15;;;;;;;9.72;78.20;102509.88;10516965;28;20218;-85
2021/03/29 02:52:27;;;;;;;12.05;3.08;;;;;;;9.99;77.80;102562.09;10556967;28;20130;-86
2021/03/29 02:57:28;;;;;;;13.05;3.30;;;;;;;10.06;78.22;102573.25;10528392;28;20207;-86
2021/03/29 03:02:29;;;;;;;11.68;2.63;;;;;;;9.98;78.47;102570.53;10509890;28;20507;-86
2021/03/29 03:07:30;;;;;;;11.55;3.58;;;;;;;9.60;78.74;102534.00;10563024;28;20107;-88
2021/03/29 03:12:31;;;;;;;16.38;4.00;;;;;;;9.69;79.37;102564.53;10530908;28;20417;-86
2021/03/29 03:17:33;;;;;;;10.02;3.10;;;;;;;9.56;80.34;102568.09;10523480;28;20584;-86
2021/03/29 03:22:33;;;;;;;8.32;3.40;;;;;;;9.31;80.37;102527.19;10507433;28;20139;-86
2021/03/29 03:27:35;;;;;;;11.60;3.65;;;;;;;8.97;81.23;102508.06;10479577;28;20100;-87
2021/03/29 03:32:35;;;;;;;10.25;3.95;;;;;;;9.43;82.13;102571.69;10508864;28;20032;-84
2021/03/29 03:37:36;;;;;;;12.82;3.60;;;;;;;9.39;82.25;102576.13;10507962;28;20036;-87
2021/03/29 03:42:37;;;;;;;14.77;3.75;;;;;;;9.51;82.40;102589.84;10506999;28;20388;-83
2021/03/29 03:47:38;;;;;;;20.80;3.85;;;;;;;9.64;81.56;102583.56;10474572;28;20045;-87
2021/03/29 03:52:40;;;;;;;16.05;3.78;;;;;;;9.20;82.21;102514.25;10505406;28;20059;-86
2021/03/29 03:57:41;;;;;;;17.80;5.00;;;;;;;9.55;82.01;102569.22;10483475;28;20055;-87
2021/03/29 04:02:44;;;;;;;12.57;3.67;;;;;;;9.25;82.29;102528.41;10517678;28;20060;-86
2021/03/29 04:07:49;;;;;;;13.48;3.47;;;;;;;9.10;82.46;102520.69;10509296;28;20143;-85
2021/03/29 04:12:55;;;;;;;11.60;3.47;;;;;;;9.22;82.91;102537.13;10490344;28;20052;-85
2021/03/29 04:17:56;;;;;;;13.98;3.90;;;;;;;9.28;83.37;102570.97;10478199;28;20036;-86
2021/03/29 04:22:59;;;;;;;17.27;4.18;;;;;;;8.93;83.66;102515.19;10513997;28;20090;-86
2021/03/29 04:28:00;;;;;;;13.15;3.03;;;;;;;9.48;83.64;102606.66;10518226;28;20045;-85
2021/03/29 04:33:01;;;;;;;13.38;3.53;;;;;;;9.01;84.31;102544.13;10467545;28;20036;-82
2021/03/29 04:38:02;;;;;;;13.02;4.35;;;;;;;9.31;84.39;102602.75;10522084;28;20047;-84
2021/03/29 04:43:02;;;;;;;9.07;3.53;;;;;;;9.30;84.75;102595.75;10499835;28;20081;-84
2021/03/29 04:48:03;;;;;;;9.98;3.47;;;;;;;9.23;85.02;102594.56;10497710;28;20148;-81
2021/03/29 04:53:04;;;;;;;13.82;3.90;;;;;;;9.17;85.20;102602.00;10499979;28;20106;-81
2021/03/29 04:58:06;;;;;;;13.25;3.55;;;;;;;9.13;86.28;102606.41;10491280;28;20131;-82
2021/03/29 05:03:06;;;;;;;14.00;5.05;;;;;;;9.14;86.12;102605.31;10502603;28;20412;-81
2021/03/29 05:08:07;;;;;;;14.95;5.22;;;;;;;8.87;86.46;102571.94;10504902;28;20041;-80
2021/03/29 05:13:08;;;;;;;15.73;3.60;;;;;;;8.76;86.97;102570.56;10506885;28;20041;-81
2021/03/29 05:18:08;;;;;;;9.32;3.97;;;;;;;8.24;87.27;102489.22;10516463;28;20040;-81
2021/03/29 05:23:09;;;;;;;14.00;4.68;;;;;;;8.98;87.48;102604.84;10518036;28;20341;-81
2021/03/29 05:28:11;;;;;;;12.43;3.63;;;;;;;8.84;88.16;102599.53;10529618;28;20028;-83
2021/03/29 05:33:13;;;;;;;;;;;;;;;8.97;88.06;102629.44;10490995;28;20032;-82
2021/03/29 05:38:21;;;;;;;12.18;4.20;;;;;;;8.95;87.94;102626.25;10497355;28;20255;-82
2021/03/29 05:43:32;;;;;;;15.77;3.90;;;;;;;8.31;87.57;102532.69;10507454;28;20085;-82
2021/03/29 05:49:27;;;;;;;;;;;;;;;;;;;;;
2021/03/29 05:54:51;;;;;;;;;;;;;;;;;;;;;
2021/03/29 06:00:32;;;;;;;14.50;3.33;;;;;;;8.89;87.79;102618.28;10473986;28;20072;-82
2021/03/29 06:05:38;;;;;;;11.32;3.70;;;;;;;9.06;88.36;102676.97;10518428;28;20032;-82
2021/03/29 06:11:07;;;;;;;16.65;3.90;;;;;;;8.27;88.61;102545.19;10520398;28;20229;-83
2021/03/29 06:16:32;;;;;;;14.93;4.15;;;;;;;8.15;88.95;102534.13;10508297;28;20385;-83
2021/03/29 06:21:33;;;;;;;13.60;3.47;;;;;;;8.61;88.58;102611.34;10531010;28;20040;-83
2021/03/29 06:26:38;;;;;;;23.88;5.25;;;;;;;8.52;88.18;102576.22;10487574;28;20032;-82
2021/03/29 06:32:17;;;;;;;10.40;3.15;;;;;;;8.80;87.95;102613.91;10471060;28;20040;-81
2021/03/29 06:37:32;;;;;;;14.52;4.20;;;;;;;9.05;87.29;102639.50;10523101;28;20035;-81
2021/03/29 06:42:48;;;;;;;;;;;;;;;;;;;;;
2021/03/29 06:48:57;;;;;;;15.60;4.00;;;;;;;9.08;86.42;102620.03;10481218;28;20123;-82
2021/03/29 06:54:21;;;;;;;9.98;3.42;;;;;;;9.51;86.06;102690.50;10514681;28;20123;-80
2021/03/29 06:59:41;;;;;;;20.90;4.60;;;;;;;9.62;85.31;102688.38;10517585;28;20221;-81
2021/03/29 07:04:42;;;;;;;10.82;3.30;;;;;;;9.59;84.70;102672.78;10548327;28;20090;-82
2021/03/29 07:09:43;;;;;;;17.92;3.67;;;;;;;9.66;83.69;102689.34;10531738;28;20115;-82
2021/03/29 07:14:57;;;;;;;;;;;;;;;;;;;;;
2021/03/29 07:20:36;;;;;;;;;;;;;;;;;;;;;
2021/03/29 07:25:47;;;;;;;17.55;3.83;;;;;;;9.76;82.85;102671.28;10558376;28;20062;-82
2021/03/29 07:31:51;;;;;;;;;;;;;;;;;;;;;
2021/03/29 07:37:17;;;;;;;15.20;4.00;;;;;;;8.96;81.93;102552.31;10560092;27;20067;-81
2021/03/29 07:42:44;;;;;;;;;;;;;;;;;;;;;
2021/03/29 07:48:19;;;;;;;11.05;3.58;;;;;;;10.32;81.79;102737.44;10551454;28;20035;-81
2021/03/29 07:53:43;;;;;;;13.45;3.92;;;;;;;9.35;81.79;102585.94;10541573;28;20530;-81
2021/03/29 07:59:12;;;;;;;20.15;4.57;;;;;;;10.19;81.55;102679.66;10534315;27;20070;-81
2021/03/29 08:04:14;;;;;;;10.10;3.88;;;;;;;10.56;81.02;102737.88;10531778;28;20044;-81
2021/03/29 08:10:17;;;;;;;;;;;;;;;;;;;;;
2021/03/29 08:15:30;;;;;;;12.30;3.78;;;;;;;11.02;78.37;102678.16;10527482;28;20084;-83
2021/03/29 08:21:41;;;;;;;13.43;3.60;;;;;;;14.11;66.33;102752.50;10524999;28;20063;-83
2021/03/29 08:27:05;;;;;;;13.10;3.95;;;;;;;14.92;58.99;102610.44;10547494;28;20040;-81
2021/03/29 08:32:41;;;;;;;;;;;;;;;;;;;;;
2021/03/29 08:45:13;;;;;;;;;;;;;;;;;;;;;
2021/03/29 08:51:02;;;;;;;;;;;;;;;;;;;;;
2021/03/29 09:03:18;;;;;;;;;;;;;;;;;;;;;
2021/03/29 09:08:49;;;;;;;10.38;3.42;;;;;;;17.10;48.80;102692.19;10420231;28;20064;-84
2021/03/29 09:14:27;;;;;;;9.68;2.80;;;;;;;17.88;47.55;102724.19;10450666;28;20094;-84
2021/03/29 09:19:42;;;;;;;;;;;;;;;18.12;47.05;102805.91;10501944;28;20043;-85
2021/03/29 09:24:43;;;;;;;10.90;3.38;;;;;;;18.03;46.99;102808.09;10492029;28;19924;-89
2021/03/29 09:29:52;;;;;;;12.15;3.00;;;;;;;18.27;45.28;102751.41;10518587;28;20042;-87
2021/03/29 09:34:53;;;;;;;8.75;3.20;;;;;;;17.32;45.90;102660.63;10479302;28;20353;-87
2021/03/29 09:40:06;;;;;;;10.17;3.33;;;;;;;18.37;43.78;102734.41;10484792;28;20039;-86
2021/03/29 09:45:18;;;;;;;12.00;3.35;;;;;;;18.94;43.59;102822.94;10508358;28;20409;-87
2021/03/29 09:50:44;;;;;;;8.18;2.67;;;;;;;18.49;42.68;102747.88;10469878;28;20032;-86
2021/03/29 09:55:54;;;;;;;11.25;4.13;;;;;;;18.64;42.77;102830.28;10501541;28;20071;-91
2021/03/29 10:01:23;;;;;;;11.93;3.85;;;;;;;18.25;43.59;102775.63;10529978;28;20059;-91
2021/03/29 10:06:35;;;;;;;11.82;3.67;;;;;;;18.39;43.38;102803.28;10533923;28;20043;-83
2021/03/29 10:12:25;;;;;;;;;;;;;;;;;;;;;
2021/03/29 10:24:18;;;;;;;11.75;3.30;;;;;;;18.63;40.06;102680.78;10513693;28;22183;-85
2021/03/29 10:30:01;;;;;;;;;;;;;;;;;;;;;
2021/03/29 10:35:39;;;;;;;8.10;4.03;;;;;;;18.34;40.04;102729.63;10547512;28;20054;-84
2021/03/29 10:41:39;;;;;;;9.98;3.00;;;;;;;18.69;39.63;102789.66;10549661;28;20031;-83
2021/03/29 10:47:01;;;;;;;9.73;2.95;;;;;;;19.54;38.87;102799.47;10568948;28;20035;-83
2021/03/29 10:58:29;;;;;;;8.82;3.47;;;;;;;18.04;40.55;102713.91;10543166;28;20253;-82
2021/03/29 11:03:47;;;;;;;;;;;;;;;;;;;;;
2021/03/29 11:14:49;;;;;;;12.05;2.85;;;;;;;18.03;40.43;102802.63;10550268;28;20044;-85
2021/03/29 11:20:32;;;;;;;13.27;3.53;;;;;;;17.77;39.76;102810.69;10510424;28;20129;-83
2021/03/29 11:25:58;;;;;;;10.93;2.92;;;;;;;17.85;40.11;102779.59;10497896;28;20065;-82
2021/03/29 11:31:20;;;;;;;10.95;2.85;;;;;;;18.33;37.95;102800.03;10556230;28;20578;-79
2021/03/29 11:36:33;;;;;;;;;;;;;;;;;;;;;
2021/03/29 11:54:33;;;;;;;11.25;2.35;;;;;;;19.08;37.23;102838.81;10540168;28;20048;-88
2021/03/29 12:12:33;;;;;;;7.32;2.88;;;;;;;18.39;35.55;102715.66;10534062;28;20643;-79
2021/03/29 12:17:57;;;;;;;5.22;2.53;;;;;;;19.57;35.00;102831.66;10541322;28;20040;-80
2021/03/29 12:23:06;;;;;;;13.55;4.57;;;;;;;19.35;34.26;102812.16;10544504;28;20043;-80
2021/03/29 12:28:07;;;;;;;11.23;2.70;;;;;;;19.42;34.78;102825.16;10523988;28;20035;-80
2021/03/29 12:33:09;;;;;;;9.63;2.30;;;;;;;19.61;34.02;102843.44;10524270;28;20159;-80
2021/03/29 12:38:09;;;;;;;9.07;2.28;;;;;;;19.71;35.04;102837.34;10545915;28;20031;-79
2021/03/29 12:43:15;;;;;;;9.68;3.25;;;;;;;19.59;34.27;102815.59;10530355;28;20106;-79
2021/03/29 12:48:18;;;;;;;9.70;4.38;;;;;;;19.74;32.77;102797.38;10538343;28;20119;-88
2021/03/29 12:53:25;;;;;;;12.50;3.58;;;;;;;19.96;33.16;102787.41;10498577;28;20134;-84
2021/03/29 12:58:26;;;;;;;8.75;2.55;;;;;;;20.10;33.64;102804.03;10524335;28;20488;-87
2021/03/29 13:03:32;;;;;;;5.55;2.30;;;;;;;19.67;32.52;102770.63;10533753;28;20052;-84
2021/03/29 13:08:33;;;;;;;7.22;2.97;;;;;;;19.86;32.19;102827.31;10532240;28;20059;-87
2021/03/29 13:13:35;;;;;;;13.27;2.22;;;;;;;20.33;32.59;102816.78;10530800;28;20092;-87
2021/03/29 13:18:35;;;;;;;4.40;2.05;;;;;;;20.45;32.19;102844.75;10532426;28;20044;-83
2021/03/29 13:23:36;;;;;;;5.88;2.67;;;;;;;20.21;32.26;102832.38;10540221;28;20071;-85
2021/03/29 13:28:37;;;;;;;7.57;2.28;;;;;;;19.84;32.50;102748.09;10508532;28;20035;-84
2021/03/29 13:33:45;;;;;;;12.73;3.07;;;;;;;19.48;33.63;102718.69;10534193;28;20050;-87
2021/03/29 13:38:47;;;;;;;5.40;2.53;;;;;;;20.15;32.85;102822.91;10534697;28;20058;-82
2021/03/29 13:43:50;;;;;;;12.57;2.47;;;;;;;20.04;31.22;102739.66;10514510;28;20062;-85
2021/03/29 13:49:22;;;;;;;9.80;2.78;;;;;;;19.59;31.42;102664.72;10506058;28;20130;-88
2021/03/29 13:54:25;;;;;;;5.60;2.20;;;;;;;20.06;32.96;102798.50;10517143;28;20060;-82
2021/03/29 13:59:26;;;;;;;10.77;2.78;;;;;;;20.47;31.73;102767.47;10494402;28;20082;-83
2021/03/29 14:04:32;;;;;;;6.15;2.30;;;;;;;20.39;31.94;102776.81;10530661;28;20047;-82
2021/03/29 14:09:41;;;;;;;6.30;1.90;;;;;;;20.69;32.16;102831.63;10520074;28;20051;-84
2021/03/29 14:14:45;;;;;;;8.02;2.90;;;;;;;20.21;31.47;102733.53;10536244;28;20111;-86
2021/03/29 14:19:50;;;;;;;12.82;3.67;;;;;;;19.80;32.37;102730.81;10534906;28;20467;-81
2021/03/29 14:24:57;;;;;;;9.45;4.03;;;;;;;20.04;31.81;102772.59;10525580;28;20062;-88
2021/03/29 14:29:57;;;;;;;10.50;4.32;;;;;;;19.53;32.03;102682.69;10516122;28;20040;-83
2021/03/29 14:35:18;;;;;;;11.23;3.47;;;;;;;20.20;31.95;102780.56;10511372;28;20032;-86
2021/03/29 14:40:44;;;;;;;;;;;;;;;;;;;;;
2021/03/29 14:46:09;;;;;;;9.10;2.78;;;;;;;19.48;31.35;102652.88;10507304;28;20467;-84
2021/03/29 14:51:15;;;;;;;7.10;2.35;;;;;;;20.01;30.67;102734.91;10539071;28;20036;-85
2021/03/29 14:56:24;;;;;;;10.00;3.38;;;;;;;19.59;31.95;102692.13;10522422;28;20058;-87
2021/03/29 15:01:42;;;;;;;19.20;6.65;;;;;;;20.04;33.46;102748.69;10510218;28;20048;-84
2021/03/29 15:07:45;;;;;;;9.15;3.42;;;;;;;19.77;33.10;102715.09;10528205;28;20495;-88
2021/03/29 15:13:30;;;;;;;8.63;2.95;;;;;;;19.98;33.06;102779.59;10401022;28;20045;-91
2021/03/29 15:18:54;;;;;;;9.35;2.47;;;;;;;19.85;33.10;102766.16;10397177;28;20042;-86
2021/03/29 15:24:01;;;;;;;9.95;2.70;;;;;;;20.14;33.96;102821.31;10375922;28;21546;-86
2021/03/29 15:29:13;;;;;;;8.82;2.90;;;;;;;19.97;34.20;102808.22;10437602;28;20464;-81
2021/03/29 15:34:16;;;;;;;8.68;2.80;;;;;;;20.10;34.39;102815.00;10527355;28;20491;-83
2021/03/29 15:39:49;;;;;;;12.30;2.85;;;;;;;20.26;34.33;102829.28;10535452;28;20024;-86
2021/03/29 15:44:53;;;;;;;8.77;2.30;;;;;;;20.21;35.03;102820.63;10544478;28;20039;-80
2021/03/29 15:49:53;;;;;;;10.20;3.38;;;;;;;20.07;35.94;102832.25;10527658;28;20040;-79
2021/03/29 15:54:57;;;;;;;10.55;2.85;;;;;;;19.58;35.56;102767.38;10505336;27;20044;-83
2021/03/29 15:59:58;;;;;;;8.23;2.72;;;;;;;19.39;35.49;102733.47;10537811;28;20047;-86
2021/03/29 16:05:00;;;;;;;13.13;4.35;;;;;;;20.21;35.45;102823.34;10540311;28;20055;-80
2021/03/29 16:10:01;;;;;;;7.10;2.85;;;;;;;19.73;34.80;102762.84;10539639;28;20103;-80
2021/03/29 16:15:03;;;;;;;12.32;4.55;;;;;;;19.51;34.44;102723.41;10500239;28;20033;-81
2021/03/29 16:20:06;;;;;;;7.28;2.50;;;;;;;20.05;33.54;102774.16;10532496;28;20107;-79
2021/03/29 16:25:09;;;;;;;9.18;2.90;;;;;;;20.12;35.00;102768.75;10531679;28;20130;-83
2021/03/29 16:30:10;;;;;;;8.07;2.90;;;;;;;20.10;34.11;102820.50;10533471;28;20158;-81
2021/03/29 16:35:11;;;;;;;7.18;3.00;;;;;;;19.63;35.03;102797.22;10519121;27;20038;-79
2021/03/29 16:40:12;;;;;;;7.70;2.63;;;;;;;19.53;35.71;102814.34;10529532;28;20042;-80
2021/03/29 16:45:13;;;;;;;9.70;3.10;;;;;;;19.21;36.55;102803.75;10542727;28;20274;-81
2021/03/29 16:50:14;;;;;;;11.20;2.50;;;;;;;19.14;36.97;102828.31;10548709;28;20036;-80
2021/03/29 16:55:18;;;;;;;9.23;2.58;;;;;;;18.98;37.66;102834.75;10546788;28;20042;-82
2021/03/29 17:00:20;;;;;;;15.15;3.13;;;;;;;18.68;38.55;102792.78;10531840;28;20055;-79
2021/03/29 17:05:22;;;;;;;9.40;3.03;;;;;;;17.61;38.71;102655.66;10509993;28;20047;-81
2021/03/29 17:10:24;;;;;;;9.88;2.90;;;;;;;18.66;38.45;102822.47;10522790;28;20552;-83
2021/03/29 17:15:26;;;;;;;6.82;2.22;;;;;;;17.85;37.77;102724.88;10500975;28;20036;-80
2021/03/29 17:20:27;;;;;;;10.30;2.58;;;;;;;18.30;38.27;102832.84;10530037;28;20036;-80
2021/03/29 17:25:28;;;;;;;7.45;2.33;;;;;;;18.04;38.57;102801.47;10509884;28;20039;-80
2021/03/29 17:30:29;;;;;;;6.18;1.80;;;;;;;17.99;38.82;102818.19;10530710;28;20040;-80
2021/03/29 17:35:30;;;;;;;8.32;2.20;;;;;;;17.26;40.22;102744.06;10515950;28;20812;-81
2021/03/29 17:40:33;;;;;;;10.27;2.40;;;;;;;17.05;41.87;102754.50;10514418;28;20035;-82
2021/03/29 17:45:33;;;;;;;8.60;2.72;;;;;;;16.53;42.32;102711.97;10517009;28;20051;-78
2021/03/29 17:50:35;;;;;;;10.00;2.70;;;;;;;17.13;42.28;102827.31;10515999;28;20099;-80
2021/03/29 17:55:37;;;;;;;6.60;2.30;;;;;;;16.49;42.44;102750.13;10521425;28;20070;-81
2021/03/29 18:00:37;;;;;;;7.25;2.60;;;;;;;16.69;44.16;102819.22;10533278;28;20694;-82
2021/03/29 18:05:39;;;;;;;7.63;2.83;;;;;;;15.95;44.88;102751.50;10520132;28;20039;-79
2021/03/29 18:10:40;;;;;;;7.77;2.47;;;;;;;15.98;44.58;102758.19;10537321;28;20043;-81
2021/03/29 18:15:41;;;;;;;10.48;2.50;;;;;;;16.06;45.02;102809.84;10537913;28;20395;-84
2021/03/29 18:20:41;;;;;;;7.47;2.33;;;;;;;16.26;44.24;102840.78;10549886;28;20430;-80
2021/03/29 18:25:42;;;;;;;7.13;2.85;;;;;;;16.13;43.68;102852.88;10555298;28;20349;-79
2021/03/29 18:30:42;;;;;;;11.23;2.60;;;;;;;15.75;43.86;102820.66;10556441;28;20051;-81
2021/03/29 18:35:43;;;;;;;6.93;2.50;;;;;;;15.73;43.61;102833.84;10555227;28;20123;-77
2021/03/29 18:40:43;;;;;;;7.93;2.70;;;;;;;15.42;43.65;102808.00;10559698;28;20032;-78
2021/03/29 18:45:45;;;;;;;8.52;3.30;;;;;;;15.34;44.60;102817.13;10564801;28;20454;-79
2021/03/29 18:50:45;;;;;;;8.38;2.80;;;;;;;15.38;44.45;102850.69;10560791;28;20260;-77
2021/03/29 18:55:48;;;;;;;14.25;3.55;;;;;;;15.36;46.19;102882.97;10548324;28;20304;-78
2021/03/29 19:00:49;;;;;;;21.40;4.80;;;;;;;14.91;46.47;102837.56;10532177;28;20330;-78
2021/03/29 19:05:50;;;;;;;13.50;3.75;;;;;;;15.00;46.56;102895.44;10560646;27;20047;-77
2021/03/29 19:10:50;;;;;;;9.02;3.13;;;;;;;14.90;46.73;102895.88;10542247;28;20042;-79
2021/03/29 19:15:51;;;;;;;6.78;2.90;;;;;;;14.55;47.41;102858.16;10537602;28;20023;-79
2021/03/29 19:20:53;;;;;;;8.73;2.75;;;;;;;14.55;48.05;102890.81;10556592;27;20050;-82
2021/03/29 19:26:01;;;;;;;6.35;2.75;;;;;;;13.91;48.51;102803.09;10551882;28;20100;-80
2021/03/29 19:31:02;;;;;;;8.45;2.80;;;;;;;14.06;49.08;102847.09;10555546;28;20043;-77
2021/03/29 19:36:09;;;;;;;11.98;3.63;;;;;;;14.22;50.01;102899.75;10551256;28;20032;-77
2021/03/29 19:41:11;;;;;;;10.30;3.60;;;;;;;13.92;50.62;102875.38;10557725;28;20048;-79
2021/03/29 19:46:12;;;;;;;9.65;3.50;;;;;;;14.05;50.97;102917.00;10542973;28;20039;-78
2021/03/29 19:51:12;;;;;;;9.55;3.70;;;;;;;13.83;51.76;102888.25;10538942;27;20566;-79
2021/03/29 19:56:15;;;;;;;10.02;4.03;;;;;;;13.82;52.28;102902.94;10555738;28;20111;-79
2021/03/29 20:11:25;;;;;;;8.50;3.75;;;;;;;13.59;52.53;102920.69;10554040;28;20032;-79
2021/03/29 20:16:25;;;;;;;12.68;3.42;;;;;;;13.46;52.33;102907.00;10554318;28;20316;-78
2021/03/29 20:21:26;;;;;;;13.50;4.05;;;;;;;12.94;51.67;102820.34;10552943;28;20475;-83
2021/03/29 20:26:26;;;;;;;12.75;3.53;;;;;;;13.13;51.70;102865.31;10557465;28;20036;-81
2021/03/29 20:31:27;;;;;;;9.52;2.70;;;;;;;13.43;51.05;102918.53;10554300;27;20039;-81
2021/03/29 20:36:28;;;;;;;7.55;2.92;;;;;;;13.52;50.34;102916.59;10558546;28;20403;-82
2021/03/29 20:41:28;;;;;;;9.45;3.03;;;;;;;13.20;49.85;102854.72;10537373;28;20043;-82
2021/03/29 20:46:29;;;;;;;9.43;3.20;;;;;;;13.53;49.02;102885.56;10524843;28;20114;-90
2021/03/29 20:51:30;;;;;;;10.90;4.65;;;;;;;13.92;48.19;102913.44;10513388;28;20123;-83
2021/03/29 20:56:31;;;;;;;10.80;3.28;;;;;;;13.94;48.16;102905.72;10523393;28;20074;-79
2021/03/29 21:01:33;;;;;;;12.65;3.40;;;;;;;13.85;47.86;102896.88;10535911;28;20051;-77
2021/03/29 21:06:34;;;;;;;9.88;3.72;;;;;;;13.96;47.65;102914.34;10537622;27;20075;-76
2021/03/29 21:11:34;;;;;;;11.98;4.13;;;;;;;13.82;48.15;102897.50;10551437;28;20118;-76
2021/03/29 21:16:36;;;;;;;10.50;4.57;;;;;;;14.05;48.19;102921.66;10556065;28;20027;-78
2021/03/29 21:21:38;;;;;;;9.32;4.15;;;;;;;14.02;48.47;102922.34;10539283;28;20044;-78
2021/03/29 21:26:40;;;;;;;10.85;5.10;;;;;;;13.95;48.71;102923.66;10504166;28;20062;-78
2021/03/29 21:31:40;;;;;;;10.48;4.82;;;;;;;13.84;48.63;102900.69;10539426;28;20047;-77
2021/03/29 21:36:41;;;;;;;11.35;5.63;;;;;;;13.87;48.97;102932.66;10519041;28;20541;-77
2021/03/29 21:41:42;;;;;;;15.27;6.28;;;;;;;13.76;49.83;102939.63;10549945;28;20044;-77
2021/03/29 21:46:42;;;;;;;11.82;5.50;;;;;;;13.63;50.03;102921.63;10565001;28;20153;-77
2021/03/29 21:51:44;;;;;;;10.98;5.05;;;;;;;13.45;50.84;102916.31;10512864;28;20052;-77
2021/03/29 21:56:45;;;;;;;11.80;5.57;;;;;;;13.48;51.05;102936.59;10546716;28;20494;-79
2021/03/29 22:01:45;;;;;;;12.77;5.50;;;;;;;13.34;51.55;102931.38;10560221;28;20301;-78
2021/03/29 22:06:46;;;;;;;15.30;6.57;;;;;;;13.25;51.25;102938.72;10564405;28;20051;-78
2021/03/29 22:11:46;;;;;;;16.35;6.20;;;;;;;13.25;51.29;102944.16;10511161;28;20054;-79
2021/03/29 22:16:48;;;;;;;12.67;5.70;;;;;;;12.92;51.78;102898.59;10561532;28;20069;-79
2021/03/29 22:21:48;;;;;;;13.40;5.95;;;;;;;13.18;52.25;102930.28;10548291;28;20240;-78
2021/03/29 22:26:49;;;;;;;12.88;5.50;;;;;;;12.94;53.04;102896.38;10558239;28;21720;-79
2021/03/29 22:32:03;;;;;;;12.18;6.38;;;;;;;13.10;53.60;102943.59;10564699;27;20032;-79
2021/03/29 22:47:25;;;;;;;19.77;6.10;;;;;;;12.96;53.62;102953.84;10547510;28;20043;-79
2021/03/29 22:52:27;;;;;;;14.07;5.97;;;;;;;12.77;53.32;102929.78;10560234;27;20027;-76
2021/03/29 22:57:28;;;;;;;14.27;6.13;;;;;;;12.86;54.06;102951.47;10545006;28;20391;-77
2021/03/29 23:02:28;;;;;;;15.38;6.47;;;;;;;12.90;54.62;102955.13;10557337;28;20054;-76
2021/03/29 23:07:31;;;;;;;11.52;6.10;;;;;;;12.69;55.10;102933.31;10550800;28;20047;-76
2021/03/29 23:12:32;;;;;;;14.63;7.13;;;;;;;12.75;56.23;102963.81;10555188;28;20512;-77
2021/03/29 23:17:32;;;;;;;14.35;6.70;;;;;;;12.62;56.72;102963.63;10565453;28;20256;-76
2021/03/29 23:22:34;;;;;;;12.85;7.03;;;;;;;12.37;57.28;102926.47;10548517;28;20028;-78
2021/03/29 23:27:35;;;;;;;13.63;6.25;;;;;;;12.15;56.64;102898.41;10550115;28;20046;-77
2021/03/29 23:32:36;;;;;;;14.98;6.68;;;;;;;12.50;56.88;102962.69;10543127;28;20076;-77
2021/03/29 23:37:37;;;;;;;15.15;6.20;;;;;;;12.11;56.64;102902.09;10555680;28;20091;-77
2021/03/29 23:42:37;;;;;;;13.40;6.43;;;;;;;12.33;56.65;102944.53;10555886;28;20091;-77
2021/03/29 23:47:38;;;;;;;13.35;6.63;;;;;;;12.24;56.87;102961.56;10557765;28;20088;-78
2021/03/29 23:52:38;;;;;;;14.07;7.20;;;;;;;12.03;57.45;102938.91;10558077;28;20040;-78
2021/03/29 23:57:38;;;;;;;15.48;8.10;;;;;;;11.86;57.33;102896.31;10528238;28;20134;-78
